sensor_id;sensor_type;location;lat;lon;timestamp;P1;durP1;ratioP1;P2;durP2;ratioP2
79539;SDS011;68991;52.122;5.406;2023-04-24T00:01:34;1.52;;;0.73;;
79539;SDS011;68991;52.122;5.406;2023-04-24T00:04:03;1.73;;;0.82;;
79539;SDS011;68991;52.122;5.406;2023-04-24T00:06:30;0.80;;;0.60;;
79539;SDS011;68991;52.122;5.406;2023-04-24T00:09:00;1.15;;;0.60;;
79539;SDS011;68991;52.122;5.406;2023-04-24T00:11:27;1.30;;;0.60;;
79539;SDS011;68991;52.122;5.406;2023-04-24T00:13:53;1.05;;;0.52;;
79539;SDS011;68991;52.122;5.406;2023-04-24T00:16:20;1.00;;;0.70;;
79539;SDS011;68991;52.122;5.406;2023-04-24T00:18:48;0.80;;;0.50;;
79539;SDS011;68991;52.122;5.406;2023-04-24T00:21:15;0.40;;;0.30;;
79539;SDS011;68991;52.122;5.406;2023-04-24T00:23:43;0.98;;;0.60;;
79539;SDS011;68991;52.122;5.406;2023-04-24T00:26:10;0.73;;;0.68;;
79539;SDS011;68991;52.122;5.406;2023-04-24T00:28:37;0.70;;;0.50;;
79539;SDS011;68991;52.122;5.406;2023-04-24T00:31:03;0.50;;;0.38;;
79539;SDS011;68991;52.122;5.406;2023-04-24T00:33:30;0.60;;;0.40;;
79539;SDS011;68991;52.122;5.406;2023-04-24T00:35:57;0.85;;;0.50;;
79539;SDS011;68991;52.122;5.406;2023-04-24T00:38:23;1.25;;;0.52;;
79539;SDS011;68991;52.122;5.406;2023-04-24T00:40:50;1.15;;;0.45;;
79539;SDS011;68991;52.122;5.406;2023-04-24T00:43:17;0.70;;;0.52;;
79539;SDS011;68991;52.122;5.406;2023-04-24T00:45:43;0.50;;;0.50;;
79539;SDS011;68991;52.122;5.406;2023-04-24T00:48:10;0.77;;;0.40;;
79539;SDS011;68991;52.122;5.406;2023-04-24T00:50:38;0.88;;;0.63;;
79539;SDS011;68991;52.122;5.406;2023-04-24T00:53:05;1.08;;;0.63;;
79539;SDS011;68991;52.122;5.406;2023-04-24T00:55:32;1.17;;;0.65;;
79539;SDS011;68991;52.122;5.406;2023-04-24T00:57:59;1.15;;;0.80;;
79539;SDS011;68991;52.122;5.406;2023-04-24T01:00:25;0.85;;;0.50;;
79539;SDS011;68991;52.122;5.406;2023-04-24T01:02:52;1.10;;;0.60;;
79539;SDS011;68991;52.122;5.406;2023-04-24T01:05:20;1.25;;;0.70;;
79539;SDS011;68991;52.122;5.406;2023-04-24T01:07:46;1.40;;;0.82;;
79539;SDS011;68991;52.122;5.406;2023-04-24T01:10:15;1.83;;;0.65;;
79539;SDS011;68991;52.122;5.406;2023-04-24T06:29:18;2.75;;;1.02;;
79539;SDS011;68991;52.122;5.406;2023-04-24T06:35:19;1.58;;;0.80;;
79539;SDS011;68991;52.122;5.406;2023-04-24T06:38:11;2.25;;;0.70;;
79539;SDS011;68991;52.122;5.406;2023-04-24T06:40:43;1.30;;;0.60;;
79539;SDS011;68991;52.122;5.406;2023-04-24T06:43:18;0.98;;;0.60;;
79539;SDS011;68991;52.122;5.406;2023-04-24T06:46:15;1.83;;;0.80;;
79539;SDS011;68991;52.122;5.406;2023-04-24T06:48:58;1.45;;;0.60;;
79539;SDS011;68991;52.122;5.406;2023-04-24T06:51:34;1.80;;;1.00;;
79539;SDS011;68991;52.122;5.406;2023-04-24T06:54:15;2.60;;;1.10;;
79539;SDS011;68991;52.122;5.406;2023-04-24T06:56:44;3.58;;;1.80;;
79539;SDS011;68991;52.122;5.406;2023-04-24T06:59:19;1.80;;;1.10;;
79539;SDS011;68991;52.122;5.406;2023-04-24T07:01:53;3.10;;;1.70;;
79539;SDS011;68991;52.122;5.406;2023-04-24T07:04:46;3.58;;;2.22;;
79539;SDS011;68991;52.122;5.406;2023-04-24T07:07:46;3.17;;;2.13;;
79539;SDS011;68991;52.122;5.406;2023-04-24T07:10:25;3.55;;;1.58;;
79539;SDS011;68991;52.122;5.406;2023-04-24T07:12:55;3.53;;;1.88;;
79539;SDS011;68991;52.122;5.406;2023-04-24T07:15:33;2.75;;;2.00;;
79539;SDS011;68991;52.122;5.406;2023-04-24T07:18:09;3.95;;;2.35;;
79539;SDS011;68991;52.122;5.406;2023-04-24T07:20:45;5.47;;;2.47;;
79539;SDS011;68991;52.122;5.406;2023-04-24T07:23:34;5.05;;;2.25;;
79539;SDS011;68991;52.122;5.406;2023-04-24T07:26:22;6.00;;;2.55;;
79539;SDS011;68991;52.122;5.406;2023-04-24T07:29:12;4.70;;;2.58;;
79539;SDS011;68991;52.122;5.406;2023-04-24T07:32:14;6.38;;;2.42;;
79539;SDS011;68991;52.122;5.406;2023-04-24T07:34:54;4.78;;;2.85;;
79539;SDS011;68991;52.122;5.406;2023-04-24T07:37:30;5.65;;;2.63;;
79539;SDS011;68991;52.122;5.406;2023-04-24T07:40:17;3.90;;;2.33;;
79539;SDS011;68991;52.122;5.406;2023-04-24T07:42:49;4.10;;;2.65;;
79539;SDS011;68991;52.122;5.406;2023-04-24T07:45:40;5.50;;;2.40;;
79539;SDS011;68991;52.122;5.406;2023-04-24T07:50:54;3.63;;;2.30;;
79539;SDS011;68991;52.122;5.406;2023-04-24T07:53:46;3.67;;;2.58;;
79539;SDS011;68991;52.122;5.406;2023-04-24T07:56:15;5.32;;;2.72;;
79539;SDS011;68991;52.122;5.406;2023-04-24T07:58:45;5.57;;;2.85;;
79539;SDS011;68991;52.122;5.406;2023-04-24T08:01:48;4.15;;;2.45;;
79539;SDS011;68991;52.122;5.406;2023-04-24T08:04:28;3.50;;;2.15;;
79539;SDS011;68991;52.122;5.406;2023-04-24T08:07:03;4.55;;;2.28;;
79539;SDS011;68991;52.122;5.406;2023-04-24T08:10:03;5.35;;;2.60;;
79539;SDS011;68991;52.122;5.406;2023-04-24T08:13:41;3.95;;;2.20;;
79539;SDS011;68991;52.122;5.406;2023-04-24T08:16:32;4.45;;;2.08;;
79539;SDS011;68991;52.122;5.406;2023-04-24T08:19:02;5.25;;;2.42;;
79539;SDS011;68991;52.122;5.406;2023-04-24T08:21:52;4.88;;;2.15;;
79539;SDS011;68991;52.122;5.406;2023-04-24T08:24:23;4.00;;;1.90;;
79539;SDS011;68991;52.122;5.406;2023-04-24T08:29:53;4.60;;;2.00;;
79539;SDS011;68991;52.122;5.406;2023-04-24T08:32:23;4.35;;;1.92;;
79539;SDS011;68991;52.122;5.406;2023-04-24T08:34:59;7.30;;;2.15;;
79539;SDS011;68991;52.122;5.406;2023-04-24T08:37:40;4.88;;;2.08;;
79539;SDS011;68991;52.122;5.406;2023-04-24T08:40:14;3.95;;;1.85;;
79539;SDS011;68991;52.122;5.406;2023-04-24T08:42:44;2.60;;;1.75;;
79539;SDS011;68991;52.122;5.406;2023-04-24T08:45:20;5.13;;;1.80;;
79539;SDS011;68991;52.122;5.406;2023-04-24T08:47:48;3.08;;;1.40;;
79539;SDS011;68991;52.122;5.406;2023-04-24T08:50:20;5.38;;;1.63;;
79539;SDS011;68991;52.122;5.406;2023-04-24T08:52:55;6.88;;;1.33;;
79539;SDS011;68991;52.122;5.406;2023-04-24T08:55:46;4.40;;;1.60;;
79539;SDS011;68991;52.122;5.406;2023-04-24T08:58:22;6.47;;;1.65;;
79539;SDS011;68991;52.122;5.406;2023-04-24T09:00:56;4.00;;;1.35;;
79539;SDS011;68991;52.122;5.406;2023-04-24T09:03:28;4.85;;;1.35;;
79539;SDS011;68991;52.122;5.406;2023-04-24T09:06:06;3.30;;;1.33;;
79539;SDS011;68991;52.122;5.406;2023-04-24T09:08:41;3.65;;;1.17;;
79539;SDS011;68991;52.122;5.406;2023-04-24T09:11:16;3.88;;;1.27;;
79539;SDS011;68991;52.122;5.406;2023-04-24T09:13:44;3.65;;;1.50;;
79539;SDS011;68991;52.122;5.406;2023-04-24T09:16:21;3.28;;;1.10;;
79539;SDS011;68991;52.122;5.406;2023-04-24T09:19:03;3.30;;;1.48;;
79539;SDS011;68991;52.122;5.406;2023-04-24T09:21:35;4.88;;;1.30;;
79539;SDS011;68991;52.122;5.406;2023-04-24T09:24:17;6.90;;;1.70;;
79539;SDS011;68991;52.122;5.406;2023-04-24T09:26:59;4.13;;;1.25;;
79539;SDS011;68991;52.122;5.406;2023-04-24T09:29:38;4.50;;;1.10;;
79539;SDS011;68991;52.122;5.406;2023-04-24T09:32:35;3.33;;;1.40;;
79539;SDS011;68991;52.122;5.406;2023-04-24T09:38:57;3.58;;;1.33;;
79539;SDS011;68991;52.122;5.406;2023-04-24T09:44:30;3.35;;;1.30;;
79539;SDS011;68991;52.122;5.406;2023-04-24T09:47:44;3.58;;;1.30;;
79539;SDS011;68991;52.122;5.406;2023-04-24T09:50:55;2.75;;;0.90;;
79539;SDS011;68991;52.122;5.406;2023-04-24T09:53:38;2.80;;;1.20;;
79539;SDS011;68991;52.122;5.406;2023-04-24T09:56:18;5.75;;;1.27;;
79539;SDS011;68991;52.122;5.406;2023-04-24T09:58:52;3.85;;;1.00;;
79539;SDS011;68991;52.122;5.406;2023-04-24T10:01:30;4.05;;;1.38;;
79539;SDS011;68991;52.122;5.406;2023-04-24T10:04:15;3.88;;;1.00;;
79539;SDS011;68991;52.122;5.406;2023-04-24T10:07:03;2.70;;;1.17;;
79539;SDS011;68991;52.122;5.406;2023-04-24T10:09:56;3.05;;;1.08;;
79539;SDS011;68991;52.122;5.406;2023-04-24T10:13:04;1.23;;;0.55;;
79539;SDS011;68991;52.122;5.406;2023-04-24T10:15:49;3.80;;;1.13;;
79539;SDS011;68991;52.122;5.406;2023-04-24T10:18:38;4.05;;;0.98;;
79539;SDS011;68991;52.122;5.406;2023-04-24T10:21:12;2.92;;;1.23;;
79539;SDS011;68991;52.122;5.406;2023-04-24T10:24:05;2.75;;;1.00;;
79539;SDS011;68991;52.122;5.406;2023-04-24T10:27:03;4.28;;;1.40;;
79539;SDS011;68991;52.122;5.406;2023-04-24T10:29:33;6.10;;;1.02;;
79539;SDS011;68991;52.122;5.406;2023-04-24T10:32:11;1.80;;;0.90;;
79539;SDS011;68991;52.122;5.406;2023-04-24T10:34:45;2.28;;;0.90;;
79539;SDS011;68991;52.122;5.406;2023-04-24T10:37:24;1.70;;;1.10;;
79539;SDS011;68991;52.122;5.406;2023-04-24T10:39:56;1.73;;;1.00;;
79539;SDS011;68991;52.122;5.406;2023-04-24T10:42:27;2.65;;;0.80;;
79539;SDS011;68991;52.122;5.406;2023-04-24T10:45:03;1.42;;;0.75;;
79539;SDS011;68991;52.122;5.406;2023-04-24T10:50:51;1.55;;;0.80;;
79539;SDS011;68991;52.122;5.406;2023-04-24T10:53:20;2.95;;;0.90;;
79539;SDS011;68991;52.122;5.406;2023-04-24T10:56:15;2.05;;;0.70;;
79539;SDS011;68991;52.122;5.406;2023-04-24T10:58:52;3.38;;;1.17;;
79539;SDS011;68991;52.122;5.406;2023-04-24T11:01:29;1.60;;;0.50;;
79539;SDS011;68991;52.122;5.406;2023-04-24T11:04:11;1.52;;;0.55;;
79539;SDS011;68991;52.122;5.406;2023-04-24T11:06:38;1.80;;;0.60;;
79539;SDS011;68991;52.122;5.406;2023-04-24T11:09:32;0.80;;;0.40;;
79539;SDS011;68991;52.122;5.406;2023-04-24T11:12:07;2.25;;;0.60;;
79539;SDS011;68991;52.122;5.406;2023-04-24T11:17:32;1.33;;;0.60;;
79539;SDS011;68991;52.122;5.406;2023-04-24T11:20:26;2.08;;;0.70;;
79539;SDS011;68991;52.122;5.406;2023-04-24T11:33:45;2.08;;;0.63;;
79539;SDS011;68991;52.122;5.406;2023-04-24T11:36:23;1.42;;;0.50;;
79539;SDS011;68991;52.122;5.406;2023-04-24T11:39:12;2.03;;;0.55;;
79539;SDS011;68991;52.122;5.406;2023-04-24T11:42:09;1.00;;;0.50;;
79539;SDS011;68991;52.122;5.406;2023-04-24T11:44:36;2.50;;;0.68;;
79539;SDS011;68991;52.122;5.406;2023-04-24T11:47:15;1.23;;;0.50;;
79539;SDS011;68991;52.122;5.406;2023-04-24T11:49:52;1.75;;;0.68;;
79539;SDS011;68991;52.122;5.406;2023-04-24T11:52:43;1.23;;;0.60;;
79539;SDS011;68991;52.122;5.406;2023-04-24T12:01:31;1.95;;;0.50;;
79539;SDS011;68991;52.122;5.406;2023-04-24T12:04:41;0.80;;;0.40;;
79539;SDS011;68991;52.122;5.406;2023-04-24T12:07:23;0.50;;;0.30;;
79539;SDS011;68991;52.122;5.406;2023-04-24T12:10:29;2.40;;;0.45;;
79539;SDS011;68991;52.122;5.406;2023-04-24T12:12:59;1.55;;;0.38;;
79539;SDS011;68991;52.122;5.406;2023-04-24T12:15:39;2.05;;;0.35;;
79539;SDS011;68991;52.122;5.406;2023-04-24T12:18:34;0.80;;;0.47;;
79539;SDS011;68991;52.122;5.406;2023-04-24T12:21:22;1.80;;;0.52;;
79539;SDS011;68991;52.122;5.406;2023-04-24T12:23:54;1.85;;;0.60;;
79539;SDS011;68991;52.122;5.406;2023-04-24T12:26:34;1.92;;;0.70;;
79539;SDS011;68991;52.122;5.406;2023-04-24T12:29:23;1.25;;;0.52;;
79539;SDS011;68991;52.122;5.406;2023-04-24T12:31:59;3.85;;;0.85;;
79539;SDS011;68991;52.122;5.406;2023-04-24T12:34:52;2.00;;;0.63;;
79539;SDS011;68991;52.122;5.406;2023-04-24T12:37:33;0.57;;;0.40;;
79539;SDS011;68991;52.122;5.406;2023-04-24T12:40:25;0.90;;;0.55;;
79539;SDS011;68991;52.122;5.406;2023-04-24T12:43:15;3.58;;;0.55;;
79539;SDS011;68991;52.122;5.406;2023-04-24T12:45:56;2.47;;;0.47;;
79539;SDS011;68991;52.122;5.406;2023-04-24T12:48:27;2.63;;;0.50;;
79539;SDS011;68991;52.122;5.406;2023-04-24T12:53:51;1.35;;;0.52;;
79539;SDS011;68991;52.122;5.406;2023-04-24T12:56:21;3.50;;;0.75;;
79539;SDS011;68991;52.122;5.406;2023-04-24T12:59:00;1.60;;;0.60;;
79539;SDS011;68991;52.122;5.406;2023-04-24T13:01:34;2.55;;;0.85;;
79539;SDS011;68991;52.122;5.406;2023-04-24T13:04:01;1.73;;;0.63;;
79539;SDS011;68991;52.122;5.406;2023-04-24T13:06:28;2.55;;;1.20;;
79539;SDS011;68991;52.122;5.406;2023-04-24T13:09:14;5.32;;;1.00;;
79539;SDS011;68991;52.122;5.406;2023-04-24T13:11:44;5.88;;;1.30;;
79539;SDS011;68991;52.122;5.406;2023-04-24T13:17:04;4.63;;;1.05;;
79539;SDS011;68991;52.122;5.406;2023-04-24T13:19:42;4.55;;;0.85;;
79539;SDS011;68991;52.122;5.406;2023-04-24T13:31:30;3.38;;;1.00;;
79539;SDS011;68991;52.122;5.406;2023-04-24T14:02:46;3.67;;;1.15;;
79539;SDS011;68991;52.122;5.406;2023-04-24T14:34:39;7.95;;;1.40;;
79539;SDS011;68991;52.122;5.406;2023-04-24T14:41:40;5.00;;;1.27;;
79539;SDS011;68991;52.122;5.406;2023-04-24T14:44:58;7.30;;;1.60;;
79539;SDS011;68991;52.122;5.406;2023-04-24T14:50:12;5.95;;;1.30;;
79539;SDS011;68991;52.122;5.406;2023-04-24T14:53:03;6.18;;;1.95;;
79539;SDS011;68991;52.122;5.406;2023-04-24T14:59:12;5.40;;;1.63;;
79539;SDS011;68991;52.122;5.406;2023-04-24T15:01:42;4.65;;;1.80;;
79539;SDS011;68991;52.122;5.406;2023-04-24T15:04:17;6.38;;;1.77;;
79539;SDS011;68991;52.122;5.406;2023-04-24T15:07:03;5.43;;;1.65;;
79539;SDS011;68991;52.122;5.406;2023-04-24T15:12:23;4.80;;;1.77;;
79539;SDS011;68991;52.122;5.406;2023-04-24T15:14:50;3.83;;;1.50;;
79539;SDS011;68991;52.122;5.406;2023-04-24T15:17:22;3.83;;;1.90;;
79539;SDS011;68991;52.122;5.406;2023-04-24T15:23:12;5.15;;;1.75;;
79539;SDS011;68991;52.122;5.406;2023-04-24T15:25:58;6.22;;;1.67;;
79539;SDS011;68991;52.122;5.406;2023-04-24T15:28:49;7.82;;;1.90;;
79539;SDS011;68991;52.122;5.406;2023-04-24T15:31:25;2.95;;;1.70;;
79539;SDS011;68991;52.122;5.406;2023-04-24T15:33:52;4.38;;;1.45;;
79539;SDS011;68991;52.122;5.406;2023-04-24T15:36:21;4.25;;;1.63;;
79539;SDS011;68991;52.122;5.406;2023-04-24T15:39:11;7.13;;;2.10;;
79539;SDS011;68991;52.122;5.406;2023-04-24T15:41:40;4.00;;;1.70;;
79539;SDS011;68991;52.122;5.406;2023-04-24T15:44:30;6.80;;;1.70;;
79539;SDS011;68991;52.122;5.406;2023-04-24T15:46:59;3.33;;;1.65;;
79539;SDS011;68991;52.122;5.406;2023-04-24T15:49:31;5.40;;;1.48;;
79539;SDS011;68991;52.122;5.406;2023-04-24T15:52:05;4.50;;;1.67;;
79539;SDS011;68991;52.122;5.406;2023-04-24T15:54:33;6.10;;;1.80;;
